sensor_id;sensor_type;location;lat;lon;timestamp;pressure;altitude;pressure_sealevel;temperature;humidity
73817;BME280;62146;53.232;-1.304;2023-02-28T00:00:30;102404.22;;;7.08;100.00
73817;BME280;62146;53.232;-1.304;2023-02-28T00:02:57;102392.00;;;7.07;100.00
73817;BME280;62146;53.232;-1.304;2023-02-28T00:05:26;102398.28;;;7.06;100.00
73817;BME280;62146;53.232;-1.304;2023-02-28T00:07:53;102407.19;;;7.05;100.00
73817;BME280;62146;53.232;-1.304;2023-02-28T00:10:22;102403.56;;;7.06;100.00
73817;BME280;62146;53.232;-1.304;2023-02-28T00:12:51;102403.75;;;7.05;100.00
73817;BME280;62146;53.232;-1.304;2023-02-28T00:15:18;102402.75;;;7.06;100.00
73817;BME280;62146;53.232;-1.304;2023-02-28T00:17:45;102401.44;;;7.02;100.00
73817;BME280;62146;53.232;-1.304;2023-02-28T00:20:13;102410.69;;;6.98;100.00
73817;BME280;62146;53.232;-1.304;2023-02-28T00:22:41;102413.31;;;6.98;100.00
73817;BME280;62146;53.232;-1.304;2023-02-28T00:25:10;102405.75;;;6.87;100.00
73817;BME280;62146;53.232;-1.304;2023-02-28T00:27:38;102408.19;;;6.89;100.00
73817;BME280;62146;53.232;-1.304;2023-02-28T00:30:06;102411.50;;;6.91;100.00
73817;BME280;62146;53.232;-1.304;2023-02-28T00:32:35;102410.38;;;6.93;100.00
73817;BME280;62146;53.232;-1.304;2023-02-28T00:35:02;102419.25;;;6.92;100.00
73817;BME280;62146;53.232;-1.304;2023-02-28T00:37:29;102428.66;;;6.94;100.00
73817;BME280;62146;53.232;-1.304;2023-02-28T00:39:56;102421.06;;;6.92;100.00
73817;BME280;62146;53.232;-1.304;2023-02-28T00:42:23;102419.25;;;6.92;100.00
73817;BME280;62146;53.232;-1.304;2023-02-28T00:44:50;102418.41;;;6.92;100.00
73817;BME280;62146;53.232;-1.304;2023-02-28T00:47:16;102421.88;;;6.92;100.00
73817;BME280;62146;53.232;-1.304;2023-02-28T00:49:43;102422.06;;;6.91;100.00
73817;BME280;62146;53.232;-1.304;2023-02-28T00:52:10;102424.50;;;6.92;100.00
73817;BME280;62146;53.232;-1.304;2023-02-28T00:54:36;102428.97;;;6.92;100.00
73817;BME280;62146;53.232;-1.304;2023-02-28T00:57:03;102424.84;;;6.89;100.00
73817;BME280;62146;53.232;-1.304;2023-02-28T00:59:30;102428.66;;;6.87;100.00
73817;BME280;62146;53.232;-1.304;2023-02-28T01:01:56;102421.88;;;6.84;100.00
73817;BME280;62146;53.232;-1.304;2023-02-28T01:04:23;102427.84;;;6.86;100.00
73817;BME280;62146;53.232;-1.304;2023-02-28T01:06:49;102427.84;;;6.86;100.00
73817;BME280;62146;53.232;-1.304;2023-02-28T01:09:16;102427.97;;;6.85;100.00
73817;BME280;62146;53.232;-1.304;2023-02-28T01:11:43;102430.63;;;6.85;100.00
73817;BME280;62146;53.232;-1.304;2023-02-28T01:14:14;102433.25;;;6.85;100.00
73817;BME280;62146;53.232;-1.304;2023-02-28T01:16:41;102435.25;;;6.83;100.00
73817;BME280;62146;53.232;-1.304;2023-02-28T01:19:08;102426.34;;;6.84;100.00
73817;BME280;62146;53.232;-1.304;2023-02-28T01:21:35;102424.72;;;6.83;100.00
73817;BME280;62146;53.232;-1.304;2023-02-28T01:24:03;102427.34;;;6.83;100.00
73817;BME280;62146;53.232;-1.304;2023-02-28T01:26:30;102420.56;;;6.80;100.00
73817;BME280;62146;53.232;-1.304;2023-02-28T01:28:56;102423.38;;;6.79;100.00
73817;BME280;62146;53.232;-1.304;2023-02-28T01:31:23;102426.34;;;6.76;100.00
73817;BME280;62146;53.232;-1.304;2023-02-28T01:33:50;102433.28;;;6.69;100.00
73817;BME280;62146;53.232;-1.304;2023-02-28T01:36:20;102425.03;;;6.56;100.00
73817;BME280;62146;53.232;-1.304;2023-02-28T01:38:48;102423.88;;;6.43;100.00
73817;BME280;62146;53.232;-1.304;2023-02-28T01:41:27;102422.91;;;6.36;100.00
73817;BME280;62146;53.232;-1.304;2023-02-28T01:44:04;102419.41;;;6.28;100.00
73817;BME280;62146;53.232;-1.304;2023-02-28T01:46:33;102411.69;;;6.26;100.00
73817;BME280;62146;53.232;-1.304;2023-02-28T01:51:34;102414.78;;;6.14;100.00
73817;BME280;62146;53.232;-1.304;2023-02-28T01:54:08;102411.16;;;6.07;100.00
73817;BME280;62146;53.232;-1.304;2023-02-28T01:56:44;102407.03;;;6.05;100.00
73817;BME280;62146;53.232;-1.304;2023-02-28T01:59:14;102408.50;;;5.99;100.00
73817;BME280;62146;53.232;-1.304;2023-02-28T02:01:44;102404.69;;;5.94;100.00
73817;BME280;62146;53.232;-1.304;2023-02-28T02:04:11;102409.28;;;5.84;100.00
73817;BME280;62146;53.232;-1.304;2023-02-28T02:06:40;102415.19;;;5.78;100.00
73817;BME280;62146;53.232;-1.304;2023-02-28T02:09:08;102412.66;;;5.69;100.00
73817;BME280;62146;53.232;-1.304;2023-02-28T02:11:35;102411.16;;;5.66;100.00
73817;BME280;62146;53.232;-1.304;2023-02-28T02:19:52;102420.81;;;5.50;100.00
73817;BME280;62146;53.232;-1.304;2023-02-28T02:25:52;102421.28;;;5.46;100.00
73817;BME280;62146;53.232;-1.304;2023-02-28T02:28:33;102418.13;;;5.42;100.00
73817;BME280;62146;53.232;-1.304;2023-02-28T02:36:28;102422.75;;;5.48;100.00
73817;BME280;62146;53.232;-1.304;2023-02-28T02:44:18;102412.09;;;5.50;100.00
73817;BME280;62146;53.232;-1.304;2023-02-28T02:46:48;102416.06;;;5.54;100.00
73817;BME280;62146;53.232;-1.304;2023-02-28T02:49:30;102412.78;;;5.59;100.00
73817;BME280;62146;53.232;-1.304;2023-02-28T02:52:03;102404.22;;;5.58;100.00
73817;BME280;62146;53.232;-1.304;2023-02-28T02:54:36;102404.88;;;5.59;100.00
73817;BME280;62146;53.232;-1.304;2023-02-28T02:57:07;102400.91;;;5.56;100.00
73817;BME280;62146;53.232;-1.304;2023-02-28T02:59:36;102400.88;;;5.48;100.00
73817;BME280;62146;53.232;-1.304;2023-02-28T03:02:08;102396.44;;;5.48;100.00
73817;BME280;62146;53.232;-1.304;2023-02-28T03:04:44;102397.94;;;5.51;100.00
73817;BME280;62146;53.232;-1.304;2023-02-28T03:07:12;102400.75;;;5.49;100.00
73817;BME280;62146;53.232;-1.304;2023-02-28T03:09:38;102402.09;;;5.53;100.00
73817;BME280;62146;53.232;-1.304;2023-02-28T03:12:09;102394.19;;;5.53;100.00
73817;BME280;62146;53.232;-1.304;2023-02-28T03:15:01;102406.34;;;5.54;100.00
73817;BME280;62146;53.232;-1.304;2023-02-28T03:20:16;102403.25;;;5.59;100.00
73817;BME280;62146;53.232;-1.304;2023-02-28T03:25:17;102404.75;;;5.61;100.00
73817;BME280;62146;53.232;-1.304;2023-02-28T03:28:00;102405.56;;;5.61;100.00
73817;BME280;62146;53.232;-1.304;2023-02-28T03:33:17;102404.75;;;5.61;100.00
73817;BME280;62146;53.232;-1.304;2023-02-28T03:35:59;102405.72;;;5.60;100.00
73817;BME280;62146;53.232;-1.304;2023-02-28T03:38:35;102410.50;;;5.57;100.00
73817;BME280;62146;53.232;-1.304;2023-02-28T03:41:43;102403.22;;;5.51;100.00
73817;BME280;62146;53.232;-1.304;2023-02-28T03:44:18;102412.22;;;5.48;100.00
73817;BME280;62146;53.232;-1.304;2023-02-28T03:47:14;102414.22;;;5.46;100.00
73817;BME280;62146;53.232;-1.304;2023-02-28T03:50:10;102418.63;;;5.38;100.00
73817;BME280;62146;53.232;-1.304;2023-02-28T03:52:42;102411.72;;;5.37;100.00
73817;BME280;62146;53.232;-1.304;2023-02-28T03:55:13;102405.25;;;5.32;100.00
73817;BME280;62146;53.232;-1.304;2023-02-28T03:58:01;102409.88;;;5.30;100.00
73817;BME280;62146;53.232;-1.304;2023-02-28T04:03:16;102411.50;;;5.31;100.00
73817;BME280;62146;53.232;-1.304;2023-02-28T04:05:52;102410.81;;;5.29;100.00
73817;BME280;62146;53.232;-1.304;2023-02-28T04:08:19;102404.63;;;5.30;100.00
73817;BME280;62146;53.232;-1.304;2023-02-28T04:10:52;102408.72;;;5.32;100.00
73817;BME280;62146;53.232;-1.304;2023-02-28T04:13:20;102412.03;;;5.34;100.00
73817;BME280;62146;53.232;-1.304;2023-02-28T04:15:46;102408.22;;;5.36;100.00
73817;BME280;62146;53.232;-1.304;2023-02-28T04:18:13;102416.81;;;5.38;100.00
73817;BME280;62146;53.232;-1.304;2023-02-28T04:20:39;102418.13;;;5.42;100.00
73817;BME280;62146;53.232;-1.304;2023-02-28T04:23:06;102420.94;;;5.41;100.00
73817;BME280;62146;53.232;-1.304;2023-02-28T04:25:33;102421.41;;;5.44;100.00
73817;BME280;62146;53.232;-1.304;2023-02-28T04:27:59;102420.28;;;5.47;100.00
73817;BME280;62146;53.232;-1.304;2023-02-28T04:30:26;102419.31;;;5.48;100.00
73817;BME280;62146;53.232;-1.304;2023-02-28T04:32:52;102419.16;;;5.49;100.00
73817;BME280;62146;53.232;-1.304;2023-02-28T04:35:19;102412.91;;;5.50;100.00
73817;BME280;62146;53.232;-1.304;2023-02-28T04:37:45;102414.56;;;5.51;100.00
73817;BME280;62146;53.232;-1.304;2023-02-28T04:40:12;102420.50;;;5.53;100.00
73817;BME280;62146;53.232;-1.304;2023-02-28T04:42:39;102422.13;;;5.54;100.00
73817;BME280;62146;53.232;-1.304;2023-02-28T04:45:06;102428.22;;;5.55;100.00
73817;BME280;62146;53.232;-1.304;2023-02-28T04:47:32;102421.16;;;5.55;100.00
73817;BME280;62146;53.232;-1.304;2023-02-28T04:49:59;102421.66;;;5.59;100.00
73817;BME280;62146;53.232;-1.304;2023-02-28T04:52:27;102429.25;;;5.61;100.00
73817;BME280;62146;53.232;-1.304;2023-02-28T04:54:54;102421.34;;;5.61;100.00
73817;BME280;62146;53.232;-1.304;2023-02-28T04:57:20;102427.25;;;5.63;100.00
73817;BME280;62146;53.232;-1.304;2023-02-28T04:59:47;102421.03;;;5.64;100.00
73817;BME280;62146;53.232;-1.304;2023-02-28T05:02:13;102418.91;;;5.68;100.00
73817;BME280;62146;53.232;-1.304;2023-02-28T05:04:40;102422.38;;;5.68;100.00
73817;BME280;62146;53.232;-1.304;2023-02-28T05:07:07;102422.38;;;5.68;100.00
73817;BME280;62146;53.232;-1.304;2023-02-28T05:09:33;102422.38;;;5.68;100.00
73817;BME280;62146;53.232;-1.304;2023-02-28T05:12:00;102422.91;;;5.72;100.00
73817;BME280;62146;53.232;-1.304;2023-02-28T05:14:27;102416.81;;;5.71;100.00
73817;BME280;62146;53.232;-1.304;2023-02-28T05:16:53;102420.94;;;5.74;100.00
73817;BME280;62146;53.232;-1.304;2023-02-28T05:19:20;102427.81;;;5.75;100.00
73817;BME280;62146;53.232;-1.304;2023-02-28T05:21:53;102421.59;;;5.76;100.00
73817;BME280;62146;53.232;-1.304;2023-02-28T05:24:20;102424.88;;;5.78;100.00
73817;BME280;62146;53.232;-1.304;2023-02-28T05:26:50;102417.81;;;5.78;100.00
73817;BME280;62146;53.232;-1.304;2023-02-28T05:29:18;102422.94;;;5.80;100.00
73817;BME280;62146;53.232;-1.304;2023-02-28T05:31:45;102421.13;;;5.80;100.00
73817;BME280;62146;53.232;-1.304;2023-02-28T05:34:12;102428.84;;;5.82;100.00
73817;BME280;62146;53.232;-1.304;2023-02-28T05:36:39;102426.22;;;5.82;100.00
73817;BME280;62146;53.232;-1.304;2023-02-28T05:39:06;102420.00;;;5.83;100.00
73817;BME280;62146;53.232;-1.304;2023-02-28T05:41:42;102426.91;;;5.84;100.00
73817;BME280;62146;53.232;-1.304;2023-02-28T05:44:10;102424.91;;;5.86;100.00
73817;BME280;62146;53.232;-1.304;2023-02-28T05:46:37;102419.66;;;5.86;100.00
73817;BME280;62146;53.232;-1.304;2023-02-28T05:49:04;102414.38;;;5.86;100.00
73817;BME280;62146;53.232;-1.304;2023-02-28T05:51:31;102416.06;;;5.87;100.00
73817;BME280;62146;53.232;-1.304;2023-02-28T05:53:59;102410.78;;;5.87;100.00
73817;BME280;62146;53.232;-1.304;2023-02-28T05:56:26;102416.06;;;5.87;100.00
73817;BME280;62146;53.232;-1.304;2023-02-28T05:58:53;102408.81;;;5.88;100.00
73817;BME280;62146;53.232;-1.304;2023-02-28T06:01:41;102413.91;;;5.90;100.00
73817;BME280;62146;53.232;-1.304;2023-02-28T06:04:09;102416.69;;;5.88;100.00
73817;BME280;62146;53.232;-1.304;2023-02-28T06:06:50;102416.69;;;5.88;100.00
73817;BME280;62146;53.232;-1.304;2023-02-28T06:09:17;102414.88;;;5.89;100.00
73817;BME280;62146;53.232;-1.304;2023-02-28T06:11:45;102419.03;;;5.91;100.00
73817;BME280;62146;53.232;-1.304;2023-02-28T06:14:17;102420.66;;;5.92;100.00
73817;BME280;62146;53.232;-1.304;2023-02-28T06:16:44;102415.41;;;5.92;100.00
73817;BME280;62146;53.232;-1.304;2023-02-28T06:19:11;102412.75;;;5.92;100.00
73817;BME280;62146;53.232;-1.304;2023-02-28T06:21:38;102414.41;;;5.93;100.00
73817;BME280;62146;53.232;-1.304;2023-02-28T06:24:05;102417.03;;;5.93;100.00
73817;BME280;62146;53.232;-1.304;2023-02-28T06:26:32;102422.16;;;5.95;100.00
73817;BME280;62146;53.232;-1.304;2023-02-28T06:28:58;102413.44;;;5.94;100.00
73817;BME280;62146;53.232;-1.304;2023-02-28T06:31:27;102423.78;;;5.96;100.00
73817;BME280;62146;53.232;-1.304;2023-02-28T06:33:55;102432.53;;;5.96;100.00
73817;BME280;62146;53.232;-1.304;2023-02-28T06:36:22;102423.63;;;5.97;100.00
73817;BME280;62146;53.232;-1.304;2023-02-28T06:38:49;102431.53;;;5.97;100.00
73817;BME280;62146;53.232;-1.304;2023-02-28T06:41:25;102437.47;;;5.99;100.00
73817;BME280;62146;53.232;-1.304;2023-02-28T06:43:53;102437.63;;;5.98;100.00
73817;BME280;62146;53.232;-1.304;2023-02-28T06:46:20;102452.28;;;6.00;100.00
73817;BME280;62146;53.232;-1.304;2023-02-28T06:48:46;102441.75;;;6.00;100.00
73817;BME280;62146;53.232;-1.304;2023-02-28T06:51:16;102444.22;;;6.02;100.00
73817;BME280;62146;53.232;-1.304;2023-02-28T06:53:43;102437.16;;;6.02;100.00
73817;BME280;62146;53.232;-1.304;2023-02-28T06:56:12;102440.59;;;6.03;100.00
73817;BME280;62146;53.232;-1.304;2023-02-28T06:58:39;102446.69;;;6.03;100.00
73817;BME280;62146;53.232;-1.304;2023-02-28T07:01:07;102440.44;;;6.04;100.00
73817;BME280;62146;53.232;-1.304;2023-02-28T07:03:35;102443.88;;;6.05;100.00
73817;BME280;62146;53.232;-1.304;2023-02-28T07:06:02;102444.72;;;6.05;100.00
73817;BME280;62146;53.232;-1.304;2023-02-28T07:08:30;102447.34;;;6.05;100.00
73817;BME280;62146;53.232;-1.304;2023-02-28T07:10:58;102448.84;;;6.08;100.00
73817;BME280;62146;53.232;-1.304;2023-02-28T07:13:24;102454.94;;;6.08;100.00
73817;BME280;62146;53.232;-1.304;2023-02-28T07:15:59;102465.47;;;6.08;100.00
73817;BME280;62146;53.232;-1.304;2023-02-28T07:18:26;102467.78;;;6.11;100.00
73817;BME280;62146;53.232;-1.304;2023-02-28T07:20:53;102459.88;;;6.11;100.00
73817;BME280;62146;53.232;-1.304;2023-02-28T07:23:21;102463.34;;;6.12;100.00
73817;BME280;62146;53.232;-1.304;2023-02-28T07:25:49;102463.19;;;6.13;100.00
73817;BME280;62146;53.232;-1.304;2023-02-28T07:28:16;102459.56;;;6.14;100.00
73817;BME280;62146;53.232;-1.304;2023-02-28T07:30:43;102456.94;;;6.14;100.00
73817;BME280;62146;53.232;-1.304;2023-02-28T07:33:09;102464.66;;;6.15;100.00
73817;BME280;62146;53.232;-1.304;2023-02-28T07:35:36;102465.47;;;6.16;100.00
73817;BME280;62146;53.232;-1.304;2023-02-28T07:38:03;102459.25;;;6.17;100.00
73817;BME280;62146;53.232;-1.304;2023-02-28T07:40:30;102460.88;;;6.18;100.00
73817;BME280;62146;53.232;-1.304;2023-02-28T07:42:59;102468.31;;;6.22;100.00
73817;BME280;62146;53.232;-1.304;2023-02-28T07:45:25;102473.75;;;6.21;100.00
73817;BME280;62146;53.232;-1.304;2023-02-28T07:47:52;102468.47;;;6.21;100.00
73817;BME280;62146;53.232;-1.304;2023-02-28T07:50:19;102459.59;;;6.22;100.00
73817;BME280;62146;53.232;-1.304;2023-02-28T07:52:45;102468.13;;;6.24;100.00
73817;BME280;62146;53.232;-1.304;2023-02-28T07:55:12;102472.44;;;6.25;100.00
73817;BME280;62146;53.232;-1.304;2023-02-28T07:57:40;102466.19;;;6.26;100.00
73817;BME280;62146;53.232;-1.304;2023-02-28T08:00:09;102456.47;;;6.26;100.00
73817;BME280;62146;53.232;-1.304;2023-02-28T08:02:36;102463.88;;;6.31;100.00
73817;BME280;62146;53.232;-1.304;2023-02-28T08:05:04;102463.22;;;6.29;100.00
73817;BME280;62146;53.232;-1.304;2023-02-28T08:07:30;102453.50;;;6.29;100.00
73817;BME280;62146;53.232;-1.304;2023-02-28T08:09:57;102462.22;;;6.30;100.00
73817;BME280;62146;53.232;-1.304;2023-02-28T08:12:24;102455.81;;;6.32;100.00
73817;BME280;62146;53.232;-1.304;2023-02-28T08:14:51;102463.56;;;6.34;100.00
73817;BME280;62146;53.232;-1.304;2023-02-28T08:17:17;102461.56;;;6.36;100.00
73817;BME280;62146;53.232;-1.304;2023-02-28T08:19:47;102454.66;;;6.35;100.00
73817;BME280;62146;53.232;-1.304;2023-02-28T08:22:14;102466.84;;;6.36;100.00
73817;BME280;62146;53.232;-1.304;2023-02-28T08:24:41;102466.69;;;6.37;100.00
73817;BME280;62146;53.232;-1.304;2023-02-28T08:27:09;102464.88;;;6.38;100.00
73817;BME280;62146;53.232;-1.304;2023-02-28T08:29:39;102460.44;;;6.38;100.00
73817;BME280;62146;53.232;-1.304;2023-02-28T08:32:06;102469.81;;;6.41;100.00
73817;BME280;62146;53.232;-1.304;2023-02-28T08:34:48;102471.47;;;6.41;100.00
73817;BME280;62146;53.232;-1.304;2023-02-28T08:37:15;102469.81;;;6.41;100.00
73817;BME280;62146;53.232;-1.304;2023-02-28T08:39:42;102462.56;;;6.42;100.00
73817;BME280;62146;53.232;-1.304;2023-02-28T08:42:08;102466.84;;;6.43;100.00
73817;BME280;62146;53.232;-1.304;2023-02-28T08:44:35;102468.50;;;6.44;100.00
73817;BME280;62146;53.232;-1.304;2023-02-28T08:47:02;102470.34;;;6.44;100.00
73817;BME280;62146;53.232;-1.304;2023-02-28T08:49:28;102468.34;;;6.46;100.00
73817;BME280;62146;53.232;-1.304;2023-02-28T08:51:54;102470.84;;;6.47;100.00
73817;BME280;62146;53.232;-1.304;2023-02-28T08:54:23;102473.47;;;6.47;100.00
73817;BME280;62146;53.232;-1.304;2023-02-28T08:56:50;102473.47;;;6.47;100.00
73817;BME280;62146;53.232;-1.304;2023-02-28T08:59:17;102468.03;;;6.49;100.00
73817;BME280;62146;53.232;-1.304;2023-02-28T09:01:43;102482.69;;;6.51;100.00
73817;BME280;62146;53.232;-1.304;2023-02-28T09:04:10;102479.22;;;6.51;100.00
73817;BME280;62146;53.232;-1.304;2023-02-28T09:06:42;102479.88;;;6.53;100.00
73817;BME280;62146;53.232;-1.304;2023-02-28T09:09:10;102480.72;;;6.53;100.00
73817;BME280;62146;53.232;-1.304;2023-02-28T09:11:37;102484.97;;;6.54;100.00
73817;BME280;62146;53.232;-1.304;2023-02-28T09:14:04;102478.75;;;6.55;100.00
73817;BME280;62146;53.232;-1.304;2023-02-28T09:16:34;102488.44;;;6.55;100.00
73817;BME280;62146;53.232;-1.304;2023-02-28T09:19:01;102484.00;;;6.55;100.00
73817;BME280;62146;53.232;-1.304;2023-02-28T09:21:28;102488.28;;;6.56;100.00
73817;BME280;62146;53.232;-1.304;2023-02-28T09:23:55;102494.22;;;6.58;100.00
73817;BME280;62146;53.232;-1.304;2023-02-28T09:26:24;102494.22;;;6.58;100.00
73817;BME280;62146;53.232;-1.304;2023-02-28T09:28:52;102480.88;;;6.60;100.00
73817;BME280;62146;53.232;-1.304;2023-02-28T09:31:21;102490.44;;;6.61;100.00
73817;BME280;62146;53.232;-1.304;2023-02-28T09:33:49;102491.25;;;6.61;100.00
73817;BME280;62146;53.232;-1.304;2023-02-28T09:36:17;102491.25;;;6.61;100.00
73817;BME280;62146;53.232;-1.304;2023-02-28T09:38:44;102495.38;;;6.64;100.00
73817;BME280;62146;53.232;-1.304;2023-02-28T09:41:16;102489.94;;;6.65;100.00
73817;BME280;62146;53.232;-1.304;2023-02-28T09:43:46;102493.25;;;6.67;100.00
73817;BME280;62146;53.232;-1.304;2023-02-28T09:48:48;102493.75;;;6.70;100.00
73817;BME280;62146;53.232;-1.304;2023-02-28T09:51:28;102487.31;;;6.73;100.00
73817;BME280;62146;53.232;-1.304;2023-02-28T09:53:56;102492.44;;;6.74;100.00
73817;BME280;62146;53.232;-1.304;2023-02-28T09:56:39;102487.00;;;6.76;100.00
73817;BME280;62146;53.232;-1.304;2023-02-28T10:07:17;102489.63;;;6.84;100.00
73817;BME280;62146;53.232;-1.304;2023-02-28T10:09:52;102496.53;;;6.85;100.00
73817;BME280;62146;53.232;-1.304;2023-02-28T10:12:20;102492.56;;;6.89;100.00
73817;BME280;62146;53.232;-1.304;2023-02-28T10:14:50;102501.16;;;6.91;100.00
73817;BME280;62146;53.232;-1.304;2023-02-28T10:17:23;102499.84;;;6.94;100.00
73817;BME280;62146;53.232;-1.304;2023-02-28T10:19:57;102504.78;;;6.97;100.00
73817;BME280;62146;53.232;-1.304;2023-02-28T10:25:00;102504.13;;;7.03;100.00
73817;BME280;62146;53.232;-1.304;2023-02-28T10:27:33;102497.69;;;7.06;100.00
73817;BME280;62146;53.232;-1.304;2023-02-28T10:30:02;102497.53;;;7.07;100.00
73817;BME280;62146;53.232;-1.304;2023-02-28T10:32:35;102494.56;;;7.10;100.00
73817;BME280;62146;53.232;-1.304;2023-02-28T10:35:10;102490.59;;;7.14;100.00
73817;BME280;62146;53.232;-1.304;2023-02-28T10:37:41;102493.06;;;7.16;100.00
73817;BME280;62146;53.232;-1.304;2023-02-28T10:45:39;102487.78;;;7.23;100.00
73817;BME280;62146;53.232;-1.304;2023-02-28T10:56:19;102467.47;;;7.40;100.00
73817;BME280;62146;53.232;-1.304;2023-02-28T11:01:47;102473.38;;;7.49;100.00
73817;BME280;62146;53.232;-1.304;2023-02-28T11:04:39;102470.69;;;7.57;100.00
73817;BME280;62146;53.232;-1.304;2023-02-28T11:07:21;102470.66;;;7.65;100.00
73817;BME280;62146;53.232;-1.304;2023-02-28T11:09:51;102470.66;;;7.73;100.00
73817;BME280;62146;53.232;-1.304;2023-02-28T11:12:20;102467.81;;;7.82;100.00
73817;BME280;62146;53.232;-1.304;2023-02-28T11:14:53;102475.19;;;7.95;100.00
73817;BME280;62146;53.232;-1.304;2023-02-28T11:17:22;102468.03;;;8.03;100.00
73817;BME280;62146;53.232;-1.304;2023-02-28T11:19:53;102458.94;;;8.13;100.00
73817;BME280;62146;53.232;-1.304;2023-02-28T11:22:26;102454.06;;;8.25;100.00
73817;BME280;62146;53.232;-1.304;2023-02-28T11:24:59;102457.34;;;8.34;100.00
73817;BME280;62146;53.232;-1.304;2023-02-28T11:29:58;102459.13;;;8.56;100.00
73817;BME280;62146;53.232;-1.304;2023-02-28T11:32:27;102459.94;;;8.64;100.00
73817;BME280;62146;53.232;-1.304;2023-02-28T11:37:38;102459.81;;;8.80;100.00
73817;BME280;62146;53.232;-1.304;2023-02-28T11:40:12;102453.44;;;8.89;100.00
73817;BME280;62146;53.232;-1.304;2023-02-28T11:48:22;102446.44;;;9.10;100.00
73817;BME280;62146;53.232;-1.304;2023-02-28T11:51:44;102445.09;;;9.14;100.00
73817;BME280;62146;53.232;-1.304;2023-02-28T11:59:09;102435.25;;;9.22;100.00
73817;BME280;62146;53.232;-1.304;2023-02-28T12:04:46;102424.22;;;9.33;100.00
73817;BME280;62146;53.232;-1.304;2023-02-28T12:10:26;102415.53;;;9.53;100.00
73817;BME280;62146;53.232;-1.304;2023-02-28T12:13:23;102405.28;;;9.64;100.00
73817;BME280;62146;53.232;-1.304;2023-02-28T12:18:50;102404.63;;;9.77;100.00
73817;BME280;62146;53.232;-1.304;2023-02-28T12:21:38;102390.66;;;9.83;100.00
73817;BME280;62146;53.232;-1.304;2023-02-28T12:26:48;102382.78;;;9.89;100.00
73817;BME280;62146;53.232;-1.304;2023-02-28T12:29:28;102389.34;;;9.93;100.00
73817;BME280;62146;53.232;-1.304;2023-02-28T12:32:04;102378.75;;;9.93;100.00
73817;BME280;62146;53.232;-1.304;2023-02-28T12:34:36;102384.03;;;9.93;100.00
73817;BME280;62146;53.232;-1.304;2023-02-28T12:37:08;102374.47;;;9.92;100.00
73817;BME280;62146;53.232;-1.304;2023-02-28T12:39:41;102379.72;;;10.06;100.00
73817;BME280;62146;53.232;-1.304;2023-02-28T12:42:22;102376.25;;;10.26;100.00
73817;BME280;62146;53.232;-1.304;2023-02-28T12:44:54;102372.59;;;10.27;100.00
73817;BME280;62146;53.232;-1.304;2023-02-28T12:47:22;102365.56;;;10.20;100.00
73817;BME280;62146;53.232;-1.304;2023-02-28T12:49:58;102369.25;;;10.19;100.00
73817;BME280;62146;53.232;-1.304;2023-02-28T12:55:43;102357.25;;;10.23;100.00
73817;BME280;62146;53.232;-1.304;2023-02-28T12:58:37;102355.25;;;10.25;100.00
73817;BME280;62146;53.232;-1.304;2023-02-28T13:06:33;102344.06;;;10.29;100.00
73817;BME280;62146;53.232;-1.304;2023-02-28T13:11:45;102345.19;;;10.41;100.00
73817;BME280;62146;53.232;-1.304;2023-02-28T13:14:28;102340.50;;;10.43;100.00
73817;BME280;62146;53.232;-1.304;2023-02-28T13:19:41;102342.78;;;10.46;100.00
73817;BME280;62146;53.232;-1.304;2023-02-28T13:22:22;102346.25;;;10.46;100.00
73817;BME280;62146;53.232;-1.304;2023-02-28T13:27:50;102338.50;;;10.45;100.00
73817;BME280;62146;53.232;-1.304;2023-02-28T13:33:36;102327.88;;;10.45;100.00
73817;BME280;62146;53.232;-1.304;2023-02-28T13:41:42;102325.84;;;10.47;100.00
73817;BME280;62146;53.232;-1.304;2023-02-28T13:52:02;102321.94;;;10.43;100.00
73817;BME280;62146;53.232;-1.304;2023-02-28T13:54:44;102309.69;;;10.42;100.00
73817;BME280;62146;53.232;-1.304;2023-02-28T13:57:54;102316.84;;;10.42;100.00
73817;BME280;62146;53.232;-1.304;2023-02-28T14:06:31;102317.72;;;10.28;100.00
73817;BME280;62146;53.232;-1.304;2023-02-28T14:11:39;102311.94;;;10.18;100.00
73817;BME280;62146;53.232;-1.304;2023-02-28T14:14:09;102315.34;;;10.12;100.00
73817;BME280;62146;53.232;-1.304;2023-02-28T14:19:11;102308.16;;;10.06;100.00
73817;BME280;62146;53.232;-1.304;2023-02-28T14:21:47;102301.22;;;10.05;100.00
73817;BME280;62146;53.232;-1.304;2023-02-28T14:32:28;102305.88;;;10.03;100.00
73817;BME280;62146;53.232;-1.304;2023-02-28T14:35:26;102303.44;;;10.02;100.00
73817;BME280;62146;53.232;-1.304;2023-02-28T14:37:56;102308.91;;;10.00;100.00
73817;BME280;62146;53.232;-1.304;2023-02-28T14:40:33;102311.94;;;9.97;100.00
73817;BME280;62146;53.232;-1.304;2023-02-28T14:43:03;102303.56;;;9.94;100.00
73817;BME280;62146;53.232;-1.304;2023-02-28T14:45:32;102304.53;;;9.93;100.00
73817;BME280;62146;53.232;-1.304;2023-02-28T14:48:01;102308.41;;;9.90;100.00
73817;BME280;62146;53.232;-1.304;2023-02-28T14:50:35;102301.44;;;9.89;100.00
73817;BME280;62146;53.232;-1.304;2023-02-28T14:53:03;102315.53;;;9.90;100.00
73817;BME280;62146;53.232;-1.304;2023-02-28T14:55:34;102306.56;;;9.91;100.00
73817;BME280;62146;53.232;-1.304;2023-02-28T14:58:06;102297.81;;;9.90;100.00
73817;BME280;62146;53.232;-1.304;2023-02-28T15:00:35;102291.50;;;9.91;100.00
73817;BME280;62146;53.232;-1.304;2023-02-28T15:03:24;102285.19;;;9.92;100.00
73817;BME280;62146;53.232;-1.304;2023-02-28T15:05:53;102288.66;;;9.93;100.00
73817;BME280;62146;53.232;-1.304;2023-02-28T15:08:20;102292.09;;;9.93;100.00
73817;BME280;62146;53.232;-1.304;2023-02-28T15:10:51;102283.34;;;9.93;100.00
73817;BME280;62146;53.232;-1.304;2023-02-28T15:13:19;102274.56;;;9.92;100.00
73817;BME280;62146;53.232;-1.304;2023-02-28T15:15:56;102276.41;;;9.92;100.00
73817;BME280;62146;53.232;-1.304;2023-02-28T15:21:24;102281.91;;;9.90;100.00